sensor_id;sensor_type;location;lat;lon;timestamp;P1;durP1;ratioP1;P2;durP2;ratioP2
10267;SDS011;5179;48.316;8.900;2024-03-29T00:00:48;0.90;;;0.60;;
10267;SDS011;5179;48.316;8.900;2024-03-29T00:02:50;1.97;;;0.70;;
10267;SDS011;5179;48.316;8.900;2024-03-29T00:04:51;1.13;;;0.70;;
10267;SDS011;5179;48.316;8.900;2024-03-29T00:06:51;1.27;;;0.70;;
10267;SDS011;5179;48.316;8.900;2024-03-29T00:08:51;1.00;;;0.73;;
10267;SDS011;5179;48.316;8.900;2024-03-29T00:10:51;1.27;;;0.80;;
10267;SDS011;5179;48.316;8.900;2024-03-29T00:12:52;0.60;;;0.60;;
10267;SDS011;5179;48.316;8.900;2024-03-29T00:14:52;1.60;;;0.70;;
10267;SDS011;5179;48.316;8.900;2024-03-29T00:16:52;1.30;;;0.70;;
10267;SDS011;5179;48.316;8.900;2024-03-29T00:18:53;0.60;;;0.60;;
10267;SDS011;5179;48.316;8.900;2024-03-29T00:20:53;0.63;;;0.63;;
10267;SDS011;5179;48.316;8.900;2024-03-29T00:22:53;1.23;;;0.80;;
10267;SDS011;5179;48.316;8.900;2024-03-29T00:24:53;1.03;;;0.70;;
10267;SDS011;5179;48.316;8.900;2024-03-29T00:26:54;0.50;;;0.50;;
10267;SDS011;5179;48.316;8.900;2024-03-29T00:28:54;0.77;;;0.50;;
10267;SDS011;5179;48.316;8.900;2024-03-29T00:30:55;1.23;;;0.70;;
10267;SDS011;5179;48.316;8.900;2024-03-29T00:32:55;2.80;;;0.90;;
10267;SDS011;5179;48.316;8.900;2024-03-29T00:34:56;2.43;;;0.70;;
10267;SDS011;5179;48.316;8.900;2024-03-29T00:36:57;1.10;;;0.80;;
10267;SDS011;5179;48.316;8.900;2024-03-29T00:38:58;0.90;;;0.60;;
10267;SDS011;5179;48.316;8.900;2024-03-29T00:40:58;1.03;;;0.77;;
10267;SDS011;5179;48.316;8.900;2024-03-29T00:42:58;0.63;;;0.60;;
10267;SDS011;5179;48.316;8.900;2024-03-29T00:44:59;0.67;;;0.67;;
10267;SDS011;5179;48.316;8.900;2024-03-29T00:46:59;2.20;;;1.00;;
10267;SDS011;5179;48.316;8.900;2024-03-29T00:48:59;0.40;;;0.40;;
10267;SDS011;5179;48.316;8.900;2024-03-29T00:51:00;1.73;;;0.80;;
10267;SDS011;5179;48.316;8.900;2024-03-29T00:53:00;0.80;;;0.60;;
10267;SDS011;5179;48.316;8.900;2024-03-29T00:55:00;1.93;;;0.80;;
10267;SDS011;5179;48.316;8.900;2024-03-29T00:57:01;0.97;;;0.70;;
10267;SDS011;5179;48.316;8.900;2024-03-29T00:59:01;0.47;;;0.47;;
10267;SDS011;5179;48.316;8.900;2024-03-29T01:01:02;1.23;;;0.80;;
10267;SDS011;5179;48.316;8.900;2024-03-29T01:03:02;1.07;;;0.90;;
10267;SDS011;5179;48.316;8.900;2024-03-29T01:05:02;0.70;;;0.70;;
10267;SDS011;5179;48.316;8.900;2024-03-29T01:07:03;0.67;;;0.60;;
10267;SDS011;5179;48.316;8.900;2024-03-29T01:09:03;1.00;;;0.67;;
10267;SDS011;5179;48.316;8.900;2024-03-29T01:11:04;1.50;;;0.80;;
10267;SDS011;5179;48.316;8.900;2024-03-29T01:13:04;1.60;;;0.70;;
10267;SDS011;5179;48.316;8.900;2024-03-29T01:15:05;1.07;;;0.70;;
10267;SDS011;5179;48.316;8.900;2024-03-29T01:17:06;0.93;;;0.70;;
10267;SDS011;5179;48.316;8.900;2024-03-29T01:19:06;1.67;;;0.90;;
10267;SDS011;5179;48.316;8.900;2024-03-29T01:21:10;2.80;;;0.70;;
10267;SDS011;5179;48.316;8.900;2024-03-29T01:23:10;0.73;;;0.73;;
10267;SDS011;5179;48.316;8.900;2024-03-29T01:25:10;1.97;;;0.60;;
10267;SDS011;5179;48.316;8.900;2024-03-29T01:27:13;0.63;;;0.63;;
10267;SDS011;5179;48.316;8.900;2024-03-29T01:29:13;0.67;;;0.60;;
10267;SDS011;5179;48.316;8.900;2024-03-29T01:31:14;1.77;;;0.60;;
10267;SDS011;5179;48.316;8.900;2024-03-29T01:33:14;1.87;;;0.80;;
10267;SDS011;5179;48.316;8.900;2024-03-29T01:35:14;0.70;;;0.60;;
10267;SDS011;5179;48.316;8.900;2024-03-29T01:37:14;0.47;;;0.47;;
10267;SDS011;5179;48.316;8.900;2024-03-29T01:39:15;0.63;;;0.60;;
10267;SDS011;5179;48.316;8.900;2024-03-29T01:41:18;0.70;;;0.63;;
10267;SDS011;5179;48.316;8.900;2024-03-29T01:43:19;1.53;;;0.70;;
10267;SDS011;5179;48.316;8.900;2024-03-29T01:45:19;1.03;;;0.70;;
10267;SDS011;5179;48.316;8.900;2024-03-29T01:47:19;0.97;;;0.70;;
10267;SDS011;5179;48.316;8.900;2024-03-29T01:49:20;0.83;;;0.63;;
10267;SDS011;5179;48.316;8.900;2024-03-29T01:51:20;1.07;;;0.77;;
10267;SDS011;5179;48.316;8.900;2024-03-29T01:53:22;1.00;;;0.70;;
10267;SDS011;5179;48.316;8.900;2024-03-29T01:55:22;1.27;;;0.70;;
10267;SDS011;5179;48.316;8.900;2024-03-29T01:57:23;2.47;;;1.43;;
10267;SDS011;5179;48.316;8.900;2024-03-29T01:59:23;0.77;;;0.70;;
10267;SDS011;5179;48.316;8.900;2024-03-29T02:01:25;0.80;;;0.70;;
10267;SDS011;5179;48.316;8.900;2024-03-29T02:03:27;1.97;;;0.70;;
10267;SDS011;5179;48.316;8.900;2024-03-29T02:05:27;1.07;;;0.80;;
10267;SDS011;5179;48.316;8.900;2024-03-29T02:07:28;0.77;;;0.77;;
10267;SDS011;5179;48.316;8.900;2024-03-29T02:09:29;2.90;;;0.70;;
10267;SDS011;5179;48.316;8.900;2024-03-29T02:11:29;0.90;;;0.70;;
10267;SDS011;5179;48.316;8.900;2024-03-29T02:13:30;2.10;;;0.60;;
10267;SDS011;5179;48.316;8.900;2024-03-29T02:15:32;1.07;;;0.90;;
10267;SDS011;5179;48.316;8.900;2024-03-29T02:17:32;0.70;;;0.70;;
10267;SDS011;5179;48.316;8.900;2024-03-29T02:19:32;0.90;;;0.70;;
10267;SDS011;5179;48.316;8.900;2024-03-29T02:21:33;4.13;;;1.00;;
10267;SDS011;5179;48.316;8.900;2024-03-29T02:23:38;0.70;;;0.70;;
10267;SDS011;5179;48.316;8.900;2024-03-29T02:25:41;1.17;;;0.90;;
10267;SDS011;5179;48.316;8.900;2024-03-29T02:27:42;2.77;;;0.70;;
10267;SDS011;5179;48.316;8.900;2024-03-29T02:29:42;1.03;;;0.77;;
10267;SDS011;5179;48.316;8.900;2024-03-29T02:31:43;1.10;;;0.60;;
10267;SDS011;5179;48.316;8.900;2024-03-29T02:33:43;0.63;;;0.50;;
10267;SDS011;5179;48.316;8.900;2024-03-29T02:35:43;1.73;;;0.70;;
10267;SDS011;5179;48.316;8.900;2024-03-29T02:37:43;2.00;;;0.80;;
10267;SDS011;5179;48.316;8.900;2024-03-29T02:39:44;0.70;;;0.67;;
10267;SDS011;5179;48.316;8.900;2024-03-29T02:41:44;0.57;;;0.57;;
10267;SDS011;5179;48.316;8.900;2024-03-29T02:43:45;0.83;;;0.60;;
10267;SDS011;5179;48.316;8.900;2024-03-29T02:45:45;0.50;;;0.50;;
10267;SDS011;5179;48.316;8.900;2024-03-29T02:47:45;2.50;;;0.70;;
10267;SDS011;5179;48.316;8.900;2024-03-29T02:49:45;1.47;;;0.80;;
10267;SDS011;5179;48.316;8.900;2024-03-29T02:51:46;0.70;;;0.70;;
10267;SDS011;5179;48.316;8.900;2024-03-29T02:53:46;2.10;;;0.70;;
10267;SDS011;5179;48.316;8.900;2024-03-29T02:55:46;0.93;;;0.80;;
10267;SDS011;5179;48.316;8.900;2024-03-29T02:57:47;0.70;;;0.60;;
10267;SDS011;5179;48.316;8.900;2024-03-29T02:59:47;1.63;;;0.70;;
10267;SDS011;5179;48.316;8.900;2024-03-29T03:01:47;0.83;;;0.53;;
10267;SDS011;5179;48.316;8.900;2024-03-29T03:03:48;0.63;;;0.50;;
10267;SDS011;5179;48.316;8.900;2024-03-29T03:05:48;2.00;;;0.67;;
10267;SDS011;5179;48.316;8.900;2024-03-29T03:07:48;3.43;;;0.77;;
10267;SDS011;5179;48.316;8.900;2024-03-29T03:10:07;0.60;;;0.60;;
10267;SDS011;5179;48.316;8.900;2024-03-29T03:12:26;0.57;;;0.50;;
10267;SDS011;5179;48.316;8.900;2024-03-29T03:14:26;1.00;;;0.60;;
10267;SDS011;5179;48.316;8.900;2024-03-29T03:16:27;0.50;;;0.50;;
10267;SDS011;5179;48.316;8.900;2024-03-29T03:18:27;0.63;;;0.63;;
10267;SDS011;5179;48.316;8.900;2024-03-29T03:20:27;0.70;;;0.70;;
10267;SDS011;5179;48.316;8.900;2024-03-29T03:22:30;0.77;;;0.63;;
10267;SDS011;5179;48.316;8.900;2024-03-29T03:24:30;0.70;;;0.60;;
10267;SDS011;5179;48.316;8.900;2024-03-29T03:26:31;0.60;;;0.60;;
10267;SDS011;5179;48.316;8.900;2024-03-29T03:28:31;1.00;;;0.70;;
10267;SDS011;5179;48.316;8.900;2024-03-29T03:30:31;0.90;;;0.70;;
10267;SDS011;5179;48.316;8.900;2024-03-29T03:32:32;0.60;;;0.60;;
10267;SDS011;5179;48.316;8.900;2024-03-29T03:34:32;2.43;;;0.70;;
10267;SDS011;5179;48.316;8.900;2024-03-29T03:36:33;1.93;;;1.00;;
10267;SDS011;5179;48.316;8.900;2024-03-29T03:38:33;0.73;;;0.57;;
10267;SDS011;5179;48.316;8.900;2024-03-29T03:40:35;0.77;;;0.70;;
10267;SDS011;5179;48.316;8.900;2024-03-29T03:42:35;0.90;;;0.90;;
10267;SDS011;5179;48.316;8.900;2024-03-29T03:44:35;0.50;;;0.50;;
10267;SDS011;5179;48.316;8.900;2024-03-29T03:46:36;0.97;;;0.60;;
10267;SDS011;5179;48.316;8.900;2024-03-29T03:48:36;0.70;;;0.60;;
10267;SDS011;5179;48.316;8.900;2024-03-29T03:50:37;1.17;;;0.60;;
10267;SDS011;5179;48.316;8.900;2024-03-29T03:52:38;0.60;;;0.60;;
10267;SDS011;5179;48.316;8.900;2024-03-29T03:54:38;0.77;;;0.67;;
10267;SDS011;5179;48.316;8.900;2024-03-29T03:56:38;0.70;;;0.70;;
10267;SDS011;5179;48.316;8.900;2024-03-29T03:58:39;0.70;;;0.50;;
10267;SDS011;5179;48.316;8.900;2024-03-29T04:00:39;1.07;;;0.80;;
10267;SDS011;5179;48.316;8.900;2024-03-29T04:02:40;1.83;;;0.70;;
10267;SDS011;5179;48.316;8.900;2024-03-29T04:04:40;0.73;;;0.53;;
10267;SDS011;5179;48.316;8.900;2024-03-29T04:06:40;1.10;;;0.60;;
10267;SDS011;5179;48.316;8.900;2024-03-29T04:08:41;0.60;;;0.60;;
10267;SDS011;5179;48.316;8.900;2024-03-29T04:10:44;2.60;;;0.60;;
10267;SDS011;5179;48.316;8.900;2024-03-29T04:12:44;0.60;;;0.60;;
10267;SDS011;5179;48.316;8.900;2024-03-29T04:14:44;1.37;;;0.70;;
10267;SDS011;5179;48.316;8.900;2024-03-29T04:16:46;1.07;;;0.80;;
10267;SDS011;5179;48.316;8.900;2024-03-29T04:18:46;1.30;;;0.83;;
10267;SDS011;5179;48.316;8.900;2024-03-29T04:20:46;1.17;;;0.90;;
10267;SDS011;5179;48.316;8.900;2024-03-29T04:22:47;0.83;;;0.80;;
10267;SDS011;5179;48.316;8.900;2024-03-29T04:24:49;0.70;;;0.70;;
10267;SDS011;5179;48.316;8.900;2024-03-29T04:26:49;1.33;;;0.80;;
10267;SDS011;5179;48.316;8.900;2024-03-29T04:28:50;6.13;;;0.80;;
10267;SDS011;5179;48.316;8.900;2024-03-29T04:32:54;0.70;;;0.70;;
10267;SDS011;5179;48.316;8.900;2024-03-29T04:34:54;0.70;;;0.70;;
10267;SDS011;5179;48.316;8.900;2024-03-29T04:36:55;1.33;;;0.80;;
10267;SDS011;5179;48.316;8.900;2024-03-29T04:38:55;1.37;;;0.90;;
10267;SDS011;5179;48.316;8.900;2024-03-29T04:40:56;0.80;;;0.80;;
10267;SDS011;5179;48.316;8.900;2024-03-29T04:42:57;1.00;;;0.70;;
10267;SDS011;5179;48.316;8.900;2024-03-29T04:44:57;1.20;;;0.90;;
10267;SDS011;5179;48.316;8.900;2024-03-29T04:46:57;1.23;;;0.67;;
10267;SDS011;5179;48.316;8.900;2024-03-29T04:48:58;1.10;;;0.87;;
10267;SDS011;5179;48.316;8.900;2024-03-29T04:50:58;0.70;;;0.70;;
10267;SDS011;5179;48.316;8.900;2024-03-29T04:52:58;0.93;;;0.80;;
10267;SDS011;5179;48.316;8.900;2024-03-29T04:54:59;0.93;;;0.70;;
10267;SDS011;5179;48.316;8.900;2024-03-29T04:56:59;1.17;;;0.60;;
10267;SDS011;5179;48.316;8.900;2024-03-29T04:59:01;1.90;;;0.80;;
10267;SDS011;5179;48.316;8.900;2024-03-29T05:01:02;1.17;;;0.80;;
10267;SDS011;5179;48.316;8.900;2024-03-29T05:03:03;0.90;;;0.77;;
10267;SDS011;5179;48.316;8.900;2024-03-29T05:05:03;3.00;;;1.07;;
10267;SDS011;5179;48.316;8.900;2024-03-29T05:07:04;0.80;;;0.80;;
10267;SDS011;5179;48.316;8.900;2024-03-29T05:09:05;0.93;;;0.77;;
10267;SDS011;5179;48.316;8.900;2024-03-29T05:11:05;2.00;;;1.07;;
10267;SDS011;5179;48.316;8.900;2024-03-29T05:13:07;1.00;;;0.90;;
10267;SDS011;5179;48.316;8.900;2024-03-29T05:15:08;1.13;;;0.77;;
10267;SDS011;5179;48.316;8.900;2024-03-29T05:17:09;0.70;;;0.70;;
10267;SDS011;5179;48.316;8.900;2024-03-29T05:19:09;1.17;;;0.80;;
10267;SDS011;5179;48.316;8.900;2024-03-29T05:21:09;0.80;;;0.77;;
10267;SDS011;5179;48.316;8.900;2024-03-29T05:23:10;1.53;;;0.90;;
10267;SDS011;5179;48.316;8.900;2024-03-29T05:25:14;1.20;;;0.63;;
10267;SDS011;5179;48.316;8.900;2024-03-29T05:27:14;1.00;;;0.70;;
10267;SDS011;5179;48.316;8.900;2024-03-29T05:29:14;1.07;;;0.97;;
10267;SDS011;5179;48.316;8.900;2024-03-29T05:31:15;0.60;;;0.60;;
10267;SDS011;5179;48.316;8.900;2024-03-29T05:33:15;0.40;;;0.40;;
10267;SDS011;5179;48.316;8.900;2024-03-29T05:35:16;0.50;;;0.50;;
10267;SDS011;5179;48.316;8.900;2024-03-29T05:37:17;1.33;;;0.90;;
10267;SDS011;5179;48.316;8.900;2024-03-29T05:39:18;1.27;;;0.67;;
10267;SDS011;5179;48.316;8.900;2024-03-29T05:41:18;1.00;;;0.70;;
10267;SDS011;5179;48.316;8.900;2024-03-29T05:43:19;1.07;;;0.97;;
10267;SDS011;5179;48.316;8.900;2024-03-29T05:45:25;0.70;;;0.70;;
10267;SDS011;5179;48.316;8.900;2024-03-29T05:47:27;0.80;;;0.80;;
10267;SDS011;5179;48.316;8.900;2024-03-29T05:49:27;1.40;;;0.90;;
10267;SDS011;5179;48.316;8.900;2024-03-29T05:51:28;1.53;;;0.93;;
10267;SDS011;5179;48.316;8.900;2024-03-29T05:53:28;1.43;;;0.80;;
10267;SDS011;5179;48.316;8.900;2024-03-29T05:55:28;0.70;;;0.70;;
10267;SDS011;5179;48.316;8.900;2024-03-29T05:57:29;0.87;;;0.73;;
10267;SDS011;5179;48.316;8.900;2024-03-29T05:59:31;0.60;;;0.60;;
10267;SDS011;5179;48.316;8.900;2024-03-29T06:01:31;1.57;;;0.60;;
10267;SDS011;5179;48.316;8.900;2024-03-29T06:03:31;0.60;;;0.60;;
10267;SDS011;5179;48.316;8.900;2024-03-29T06:05:32;0.80;;;0.60;;
10267;SDS011;5179;48.316;8.900;2024-03-29T06:07:32;1.37;;;0.80;;
10267;SDS011;5179;48.316;8.900;2024-03-29T06:09:33;1.23;;;1.13;;
10267;SDS011;5179;48.316;8.900;2024-03-29T06:11:34;1.17;;;0.90;;
10267;SDS011;5179;48.316;8.900;2024-03-29T06:13:34;3.57;;;0.90;;
10267;SDS011;5179;48.316;8.900;2024-03-29T06:15:53;0.73;;;0.70;;
10267;SDS011;5179;48.316;8.900;2024-03-29T06:18:12;0.57;;;0.57;;
10267;SDS011;5179;48.316;8.900;2024-03-29T06:20:16;1.27;;;0.60;;
10267;SDS011;5179;48.316;8.900;2024-03-29T06:22:19;0.70;;;0.70;;
10267;SDS011;5179;48.316;8.900;2024-03-29T06:24:19;0.80;;;0.80;;
10267;SDS011;5179;48.316;8.900;2024-03-29T06:26:20;0.80;;;0.63;;
10267;SDS011;5179;48.316;8.900;2024-03-29T06:28:20;1.07;;;0.77;;
10267;SDS011;5179;48.316;8.900;2024-03-29T06:30:21;1.53;;;0.90;;
10267;SDS011;5179;48.316;8.900;2024-03-29T06:32:21;0.80;;;0.77;;
10267;SDS011;5179;48.316;8.900;2024-03-29T06:34:21;1.20;;;1.00;;
10267;SDS011;5179;48.316;8.900;2024-03-29T06:36:22;5.07;;;1.30;;
10267;SDS011;5179;48.316;8.900;2024-03-29T06:38:22;2.03;;;1.13;;
10267;SDS011;5179;48.316;8.900;2024-03-29T06:40:22;0.93;;;0.90;;
10267;SDS011;5179;48.316;8.900;2024-03-29T06:42:23;1.63;;;0.70;;
10267;SDS011;5179;48.316;8.900;2024-03-29T06:44:23;0.67;;;0.60;;
10267;SDS011;5179;48.316;8.900;2024-03-29T06:46:23;1.03;;;0.90;;
10267;SDS011;5179;48.316;8.900;2024-03-29T06:48:24;2.00;;;0.73;;
10267;SDS011;5179;48.316;8.900;2024-03-29T06:50:24;0.90;;;0.90;;
10267;SDS011;5179;48.316;8.900;2024-03-29T06:52:24;2.17;;;0.93;;
10267;SDS011;5179;48.316;8.900;2024-03-29T06:54:24;0.70;;;0.70;;
10267;SDS011;5179;48.316;8.900;2024-03-29T06:56:26;1.30;;;1.00;;
10267;SDS011;5179;48.316;8.900;2024-03-29T06:58:27;1.43;;;0.90;;
10267;SDS011;5179;48.316;8.900;2024-03-29T07:00:27;1.00;;;0.90;;
10267;SDS011;5179;48.316;8.900;2024-03-29T07:02:27;2.10;;;1.63;;
10267;SDS011;5179;48.316;8.900;2024-03-29T07:04:28;1.30;;;1.07;;
10267;SDS011;5179;48.316;8.900;2024-03-29T07:06:28;3.03;;;1.40;;
10267;SDS011;5179;48.316;8.900;2024-03-29T07:08:28;0.93;;;0.93;;
10267;SDS011;5179;48.316;8.900;2024-03-29T07:10:28;2.63;;;1.20;;
10267;SDS011;5179;48.316;8.900;2024-03-29T07:12:30;0.60;;;0.60;;
10267;SDS011;5179;48.316;8.900;2024-03-29T07:14:31;1.00;;;0.80;;
10267;SDS011;5179;48.316;8.900;2024-03-29T07:16:33;1.10;;;0.97;;
10267;SDS011;5179;48.316;8.900;2024-03-29T07:18:33;0.70;;;0.70;;
10267;SDS011;5179;48.316;8.900;2024-03-29T07:20:34;1.70;;;0.90;;
10267;SDS011;5179;48.316;8.900;2024-03-29T07:22:34;1.63;;;1.00;;
10267;SDS011;5179;48.316;8.900;2024-03-29T07:24:34;0.93;;;0.90;;
10267;SDS011;5179;48.316;8.900;2024-03-29T07:26:34;1.47;;;0.90;;
10267;SDS011;5179;48.316;8.900;2024-03-29T07:28:35;0.60;;;0.60;;
10267;SDS011;5179;48.316;8.900;2024-03-29T07:30:35;0.80;;;0.80;;
10267;SDS011;5179;48.316;8.900;2024-03-29T07:32:38;0.93;;;0.70;;
10267;SDS011;5179;48.316;8.900;2024-03-29T07:34:38;1.07;;;0.70;;
10267;SDS011;5179;48.316;8.900;2024-03-29T07:36:40;2.00;;;0.73;;
10267;SDS011;5179;48.316;8.900;2024-03-29T07:38:40;0.87;;;0.60;;
10267;SDS011;5179;48.316;8.900;2024-03-29T07:40:41;1.17;;;0.60;;
10267;SDS011;5179;48.316;8.900;2024-03-29T07:42:41;0.50;;;0.50;;
10267;SDS011;5179;48.316;8.900;2024-03-29T07:44:41;0.50;;;0.50;;
10267;SDS011;5179;48.316;8.900;2024-03-29T07:46:42;0.77;;;0.70;;
10267;SDS011;5179;48.316;8.900;2024-03-29T07:48:42;0.90;;;0.70;;
10267;SDS011;5179;48.316;8.900;2024-03-29T07:50:43;0.83;;;0.70;;
10267;SDS011;5179;48.316;8.900;2024-03-29T07:52:44;0.50;;;0.50;;
10267;SDS011;5179;48.316;8.900;2024-03-29T07:54:45;0.83;;;0.63;;
10267;SDS011;5179;48.316;8.900;2024-03-29T07:56:45;0.60;;;0.60;;
10267;SDS011;5179;48.316;8.900;2024-03-29T07:58:46;1.93;;;0.80;;
10267;SDS011;5179;48.316;8.900;2024-03-29T08:00:46;1.53;;;1.00;;
10267;SDS011;5179;48.316;8.900;2024-03-29T08:02:46;3.43;;;1.83;;
10267;SDS011;5179;48.316;8.900;2024-03-29T08:04:47;3.97;;;1.43;;
10267;SDS011;5179;48.316;8.900;2024-03-29T08:06:47;1.60;;;1.10;;
10267;SDS011;5179;48.316;8.900;2024-03-29T08:08:47;1.07;;;0.90;;
10267;SDS011;5179;48.316;8.900;2024-03-29T08:10:47;1.20;;;0.93;;
10267;SDS011;5179;48.316;8.900;2024-03-29T08:12:48;2.17;;;1.13;;
10267;SDS011;5179;48.316;8.900;2024-03-29T08:14:48;2.60;;;1.30;;
10267;SDS011;5179;48.316;8.900;2024-03-29T08:16:48;3.47;;;1.20;;
10267;SDS011;5179;48.316;8.900;2024-03-29T08:18:49;2.83;;;1.37;;
10267;SDS011;5179;48.316;8.900;2024-03-29T08:20:49;3.13;;;1.20;;
10267;SDS011;5179;48.316;8.900;2024-03-29T08:22:49;3.50;;;1.20;;
10267;SDS011;5179;48.316;8.900;2024-03-29T08:24:50;2.57;;;1.03;;
10267;SDS011;5179;48.316;8.900;2024-03-29T08:26:50;1.37;;;1.20;;
10267;SDS011;5179;48.316;8.900;2024-03-29T08:28:50;1.50;;;1.07;;
10267;SDS011;5179;48.316;8.900;2024-03-29T08:30:57;2.57;;;1.30;;
10267;SDS011;5179;48.316;8.900;2024-03-29T08:32:58;1.57;;;1.30;;
10267;SDS011;5179;48.316;8.900;2024-03-29T08:34:59;2.00;;;1.40;;
10267;SDS011;5179;48.316;8.900;2024-03-29T08:37:00;2.33;;;1.40;;
10267;SDS011;5179;48.316;8.900;2024-03-29T08:39:03;2.00;;;1.27;;
10267;SDS011;5179;48.316;8.900;2024-03-29T08:41:03;2.43;;;1.30;;
10267;SDS011;5179;48.316;8.900;2024-03-29T08:43:03;1.30;;;1.20;;
10267;SDS011;5179;48.316;8.900;2024-03-29T08:45:04;1.00;;;0.90;;
10267;SDS011;5179;48.316;8.900;2024-03-29T08:47:07;1.03;;;0.93;;
10267;SDS011;5179;48.316;8.900;2024-03-29T08:49:09;1.63;;;1.20;;
10267;SDS011;5179;48.316;8.900;2024-03-29T08:51:10;4.30;;;1.10;;
10267;SDS011;5179;48.316;8.900;2024-03-29T08:53:10;1.27;;;1.10;;
10267;SDS011;5179;48.316;8.900;2024-03-29T08:55:10;1.77;;;1.10;;
10267;SDS011;5179;48.316;8.900;2024-03-29T08:57:11;2.17;;;0.90;;
10267;SDS011;5179;48.316;8.900;2024-03-29T08:59:11;4.03;;;1.27;;
10267;SDS011;5179;48.316;8.900;2024-03-29T09:01:13;1.10;;;1.00;;
10267;SDS011;5179;48.316;8.900;2024-03-29T09:03:15;1.47;;;1.00;;
10267;SDS011;5179;48.316;8.900;2024-03-29T09:05:15;1.83;;;1.10;;
10267;SDS011;5179;48.316;8.900;2024-03-29T09:07:15;1.30;;;1.10;;
10267;SDS011;5179;48.316;8.900;2024-03-29T09:09:16;2.43;;;1.10;;
10267;SDS011;5179;48.316;8.900;2024-03-29T09:11:16;1.73;;;1.03;;
10267;SDS011;5179;48.316;8.900;2024-03-29T09:13:16;2.10;;;1.30;;
10267;SDS011;5179;48.316;8.900;2024-03-29T09:15:17;1.10;;;0.90;;
10267;SDS011;5179;48.316;8.900;2024-03-29T09:17:19;1.20;;;1.10;;
10267;SDS011;5179;48.316;8.900;2024-03-29T09:19:21;2.53;;;1.00;;
10267;SDS011;5179;48.316;8.900;2024-03-29T09:21:22;1.77;;;1.20;;
10267;SDS011;5179;48.316;8.900;2024-03-29T09:23:22;2.90;;;1.30;;
10267;SDS011;5179;48.316;8.900;2024-03-29T09:25:23;1.57;;;1.10;;
10267;SDS011;5179;48.316;8.900;2024-03-29T09:27:24;2.83;;;1.20;;
10267;SDS011;5179;48.316;8.900;2024-03-29T09:29:24;1.30;;;1.10;;
10267;SDS011;5179;48.316;8.900;2024-03-29T09:31:24;2.60;;;1.00;;
10267;SDS011;5179;48.316;8.900;2024-03-29T09:33:25;1.63;;;1.20;;
10267;SDS011;5179;48.316;8.900;2024-03-29T09:35:25;1.73;;;1.10;;
10267;SDS011;5179;48.316;8.900;2024-03-29T09:37:26;2.43;;;1.37;;
10267;SDS011;5179;48.316;8.900;2024-03-29T09:39:26;1.60;;;1.40;;
10267;SDS011;5179;48.316;8.900;2024-03-29T09:41:26;2.27;;;1.67;;
10267;SDS011;5179;48.316;8.900;2024-03-29T09:43:28;2.77;;;1.60;;
10267;SDS011;5179;48.316;8.900;2024-03-29T09:45:33;2.27;;;1.93;;
10267;SDS011;5179;48.316;8.900;2024-03-29T09:47:35;2.90;;;1.50;;
10267;SDS011;5179;48.316;8.900;2024-03-29T09:49:35;3.87;;;1.90;;
10267;SDS011;5179;48.316;8.900;2024-03-29T09:51:35;2.57;;;1.70;;
10267;SDS011;5179;48.316;8.900;2024-03-29T09:53:37;2.03;;;1.70;;
10267;SDS011;5179;48.316;8.900;2024-03-29T09:55:37;1.80;;;1.60;;
10267;SDS011;5179;48.316;8.900;2024-03-29T09:57:38;2.50;;;2.00;;
10267;SDS011;5179;48.316;8.900;2024-03-29T09:59:39;3.30;;;1.50;;
10267;SDS011;5179;48.316;8.900;2024-03-29T10:01:39;1.37;;;1.17;;
10267;SDS011;5179;48.316;8.900;2024-03-29T10:03:40;2.27;;;1.50;;
10267;SDS011;5179;48.316;8.900;2024-03-29T10:05:40;1.50;;;1.23;;
10267;SDS011;5179;48.316;8.900;2024-03-29T10:07:41;1.73;;;1.37;;
10267;SDS011;5179;48.316;8.900;2024-03-29T10:09:42;4.80;;;1.20;;
10267;SDS011;5179;48.316;8.900;2024-03-29T10:11:44;2.03;;;1.23;;
10267;SDS011;5179;48.316;8.900;2024-03-29T10:13:45;1.40;;;1.30;;
10267;SDS011;5179;48.316;8.900;2024-03-29T10:15:45;1.60;;;1.50;;
10267;SDS011;5179;48.316;8.900;2024-03-29T10:17:49;2.93;;;1.30;;
10267;SDS011;5179;48.316;8.900;2024-03-29T10:19:50;2.03;;;1.33;;
10267;SDS011;5179;48.316;8.900;2024-03-29T10:21:50;2.17;;;1.50;;
10267;SDS011;5179;48.316;8.900;2024-03-29T10:23:50;3.43;;;1.67;;
10267;SDS011;5179;48.316;8.900;2024-03-29T10:25:51;2.10;;;1.17;;
10267;SDS011;5179;48.316;8.900;2024-03-29T10:27:51;3.50;;;1.50;;
10267;SDS011;5179;48.316;8.900;2024-03-29T10:29:52;1.83;;;1.60;;
10267;SDS011;5179;48.316;8.900;2024-03-29T10:31:54;1.53;;;1.40;;
10267;SDS011;5179;48.316;8.900;2024-03-29T10:33:55;4.17;;;1.60;;
10267;SDS011;5179;48.316;8.900;2024-03-29T10:36:03;2.17;;;1.40;;
10267;SDS011;5179;48.316;8.900;2024-03-29T10:38:04;1.60;;;1.43;;
10267;SDS011;5179;48.316;8.900;2024-03-29T10:40:08;2.67;;;1.50;;
10267;SDS011;5179;48.316;8.900;2024-03-29T10:42:09;1.90;;;1.20;;
10267;SDS011;5179;48.316;8.900;2024-03-29T10:44:11;1.63;;;1.40;;
10267;SDS011;5179;48.316;8.900;2024-03-29T10:46:12;2.13;;;1.40;;
10267;SDS011;5179;48.316;8.900;2024-03-29T10:48:14;2.83;;;1.43;;
10267;SDS011;5179;48.316;8.900;2024-03-29T10:50:15;2.00;;;1.43;;
10267;SDS011;5179;48.316;8.900;2024-03-29T10:52:17;2.47;;;1.60;;
10267;SDS011;5179;48.316;8.900;2024-03-29T10:54:17;2.77;;;1.73;;
10267;SDS011;5179;48.316;8.900;2024-03-29T10:56:17;2.00;;;1.40;;
10267;SDS011;5179;48.316;8.900;2024-03-29T10:58:20;1.60;;;1.50;;
10267;SDS011;5179;48.316;8.900;2024-03-29T11:00:24;1.83;;;1.63;;
10267;SDS011;5179;48.316;8.900;2024-03-29T11:04:39;4.93;;;1.90;;
10267;SDS011;5179;48.316;8.900;2024-03-29T11:06:40;1.80;;;1.60;;
10267;SDS011;5179;48.316;8.900;2024-03-29T11:08:40;4.57;;;1.70;;
10267;SDS011;5179;48.316;8.900;2024-03-29T11:10:45;1.70;;;1.40;;
10267;SDS011;5179;48.316;8.900;2024-03-29T11:15:02;2.97;;;1.50;;
10267;SDS011;5179;48.316;8.900;2024-03-29T11:17:04;1.93;;;1.60;;
10267;SDS011;5179;48.316;8.900;2024-03-29T11:19:05;2.10;;;1.40;;
10267;SDS011;5179;48.316;8.900;2024-03-29T11:21:06;1.87;;;1.33;;
10267;SDS011;5179;48.316;8.900;2024-03-29T11:23:11;2.33;;;1.60;;
10267;SDS011;5179;48.316;8.900;2024-03-29T11:25:11;4.00;;;1.50;;
10267;SDS011;5179;48.316;8.900;2024-03-29T11:27:13;2.33;;;1.50;;
10267;SDS011;5179;48.316;8.900;2024-03-29T11:29:19;1.57;;;1.27;;
10267;SDS011;5179;48.316;8.900;2024-03-29T11:31:24;2.00;;;1.47;;
10267;SDS011;5179;48.316;8.900;2024-03-29T11:35:57;1.50;;;1.40;;
10267;SDS011;5179;48.316;8.900;2024-03-29T11:38:00;3.07;;;1.40;;
10267;SDS011;5179;48.316;8.900;2024-03-29T11:40:01;2.10;;;1.50;;
10267;SDS011;5179;48.316;8.900;2024-03-29T11:42:01;2.07;;;1.30;;
10267;SDS011;5179;48.316;8.900;2024-03-29T11:44:02;1.60;;;1.50;;
10267;SDS011;5179;48.316;8.900;2024-03-29T11:46:04;2.03;;;1.30;;
10267;SDS011;5179;48.316;8.900;2024-03-29T11:48:08;1.97;;;1.20;;
10267;SDS011;5179;48.316;8.900;2024-03-29T11:50:10;1.50;;;1.37;;
10267;SDS011;5179;48.316;8.900;2024-03-29T11:52:12;2.97;;;1.40;;
10267;SDS011;5179;48.316;8.900;2024-03-29T11:54:13;1.40;;;1.30;;
10267;SDS011;5179;48.316;8.900;2024-03-29T11:56:13;1.50;;;1.20;;
10267;SDS011;5179;48.316;8.900;2024-03-29T11:58:14;1.30;;;1.10;;
10267;SDS011;5179;48.316;8.900;2024-03-29T12:00:15;1.30;;;1.10;;
10267;SDS011;5179;48.316;8.900;2024-03-29T12:02:16;2.30;;;1.10;;
10267;SDS011;5179;48.316;8.900;2024-03-29T12:04:20;1.80;;;1.20;;
10267;SDS011;5179;48.316;8.900;2024-03-29T12:06:21;1.23;;;1.10;;
10267;SDS011;5179;48.316;8.900;2024-03-29T12:08:22;1.33;;;1.20;;
10267;SDS011;5179;48.316;8.900;2024-03-29T12:10:26;2.80;;;1.43;;
10267;SDS011;5179;48.316;8.900;2024-03-29T12:12:27;1.20;;;0.93;;
10267;SDS011;5179;48.316;8.900;2024-03-29T12:14:29;1.07;;;0.90;;
10267;SDS011;5179;48.316;8.900;2024-03-29T12:16:42;1.30;;;1.10;;
10267;SDS011;5179;48.316;8.900;2024-03-29T12:18:46;1.67;;;1.00;;
10267;SDS011;5179;48.316;8.900;2024-03-29T12:20:47;2.07;;;1.00;;
10267;SDS011;5179;48.316;8.900;2024-03-29T12:22:49;1.57;;;1.10;;
10267;SDS011;5179;48.316;8.900;2024-03-29T12:24:49;1.60;;;1.20;;
10267;SDS011;5179;48.316;8.900;2024-03-29T12:26:50;1.77;;;1.13;;
10267;SDS011;5179;48.316;8.900;2024-03-29T12:28:50;1.77;;;1.10;;